WXM80 ListenWXM80 Stop

You find our weather info also at:

UK Metoffice

WeatherCloud

Weather Underground

Northeastern Weather Network

AWEKAS

Citizen Weather Observer Program (CWOP)

HAMweather, WeatherForYou, PWS Weather


Weather Underground History page Text

Daily Summary for January 25, 2017 Units:  Both    English   Metric
« Previous Day
Next Day »
Daily Weekly Monthly Yearly Custom
  High: Low: Average:
Temperature: 48.1 °F /  8.9 °C 36.8 °F /  2.7 °C 41 °F /  5 °C
Dew Point: 38.9 °F /  3.8 °C 31.5 °F /  -0.3 °C 34.5 °F /  1.4 °C
Humidity: 91 % 60 % 78 %
Wind Speed: 10.8 mph /  17.4 km/h - 4.5 mph /  7.2 km/h
Wind Gust: 19.6 mph /  31.5 km/h - -
Wind:- - West
Pressure: 29.65 in /  1003.9 hPa 29.39 in /  995.1 hPa -
Precipitation: 0.00 in /  0 mm    
Historical Graphs
 
 
Tabular Data for January 25, 2017
Time Temperature Dew Point Pressure Wind Wind Speed Wind Gust Humidity Rainfall Rate (Hourly)
00:04 38.4 °F /  3.6 °C 36.0 °F /  2.2 °C 29.39 in /  995.1 hPa WNW 4.4 mph /  7.1 km/h 10.4 mph /  16.7 km/h 91 % 0.00 in /  0 mm
00:09 38.4 °F /  3.6 °C 36.0 °F /  2.2 °C 29.40 in /  995.5 hPa NW 2.9 mph /  4.7 km/h 5.8 mph /  9.3 km/h 91 % 0.00 in /  0 mm
00:14 38.4 °F /  3.6 °C 36.0 °F /  2.2 °C 29.40 in /  995.5 hPa West 5.5 mph /  8.9 km/h 9.0 mph /  14.5 km/h 91 % 0.00 in /  0 mm
00:20 38.4 °F /  3.6 °C 36.0 °F /  2.2 °C 29.40 in /  995.5 hPa West 4.1 mph /  6.6 km/h 8.1 mph /  13 km/h 91 % 0.00 in /  0 mm
00:25 38.3 °F /  3.5 °C 35.9 °F /  2.2 °C 29.40 in /  995.5 hPa NW 5.9 mph /  9.5 km/h 8.1 mph /  13 km/h 91 % 0.00 in /  0 mm
00:30 38.3 °F /  3.5 °C 35.9 °F /  2.2 °C 29.41 in /  995.8 hPa West 6.2 mph /  10 km/h 6.9 mph /  11.1 km/h 91 % 0.00 in /  0 mm
00:35 38.3 °F /  3.5 °C 35.9 °F /  2.2 °C 29.41 in /  995.8 hPa West 3.6 mph /  5.8 km/h 10.4 mph /  16.7 km/h 91 % 0.00 in /  0 mm
00:40 38.3 °F /  3.5 °C 35.9 °F /  2.2 °C 29.41 in /  995.8 hPa WNW 3.8 mph /  6.1 km/h 9.0 mph /  14.5 km/h 91 % 0.00 in /  0 mm
00:45 38.2 °F /  3.4 °C 35.8 °F /  2.1 °C 29.41 in /  995.8 hPa WNW 4.0 mph /  6.4 km/h 9.2 mph /  14.8 km/h 91 % 0.00 in /  0 mm
00:50 38.3 °F /  3.5 °C 35.9 °F /  2.2 °C 29.41 in /  995.8 hPa NNW 6.7 mph /  10.8 km/h 10.4 mph /  16.7 km/h 91 % 0.00 in /  0 mm
00:55 38.2 °F /  3.4 °C 35.5 °F /  1.9 °C 29.42 in /  996.2 hPa West 4.8 mph /  7.7 km/h 10.0 mph /  16.1 km/h 90 % 0.00 in /  0 mm
01:00 38.2 °F /  3.4 °C 35.5 °F /  1.9 °C 29.42 in /  996.2 hPa West 5.7 mph /  9.2 km/h 12.0 mph /  19.3 km/h 90 % 0.00 in /  0 mm
01:05 38.2 °F /  3.4 °C 35.5 °F /  1.9 °C 29.42 in /  996.2 hPa WNW 6.1 mph /  9.8 km/h 10.4 mph /  16.7 km/h 90 % 0.00 in /  0 mm
01:10 38.1 °F /  3.4 °C 35.1 °F /  1.7 °C 29.42 in /  996.2 hPa WNW 5.3 mph /  8.5 km/h 10.4 mph /  16.7 km/h 89 % 0.00 in /  0 mm
01:15 38.1 °F /  3.4 °C 35.1 °F /  1.7 °C 29.43 in /  996.5 hPa WNW 5.8 mph /  9.3 km/h 13.8 mph /  22.2 km/h 89 % 0.00 in /  0 mm
01:20 38.0 °F /  3.3 °C 34.8 °F /  1.6 °C 29.43 in /  996.5 hPa WNW 6.5 mph /  10.5 km/h 11.0 mph /  17.7 km/h 88 % 0.00 in /  0 mm
01:25 38.0 °F /  3.3 °C 34.8 °F /  1.6 °C 29.43 in /  996.5 hPa WNW 3.6 mph /  5.8 km/h 9.2 mph /  14.8 km/h 88 % 0.00 in /  0 mm
01:30 37.9 °F /  3.3 °C 34.7 °F /  1.5 °C 29.43 in /  996.5 hPa West 8.1 mph /  13 km/h 11.5 mph /  18.5 km/h 88 % 0.00 in /  0 mm
01:35 37.9 °F /  3.3 °C 34.4 °F /  1.3 °C 29.44 in /  996.8 hPa WNW 7.2 mph /  11.6 km/h 11.5 mph /  18.5 km/h 87 % 0.00 in /  0 mm
01:41 37.9 °F /  3.3 °C 34.4 °F /  1.3 °C 29.43 in /  996.5 hPa WNW 6.4 mph /  10.3 km/h 15.0 mph /  24.1 km/h 87 % 0.00 in /  0 mm
01:46 37.8 °F /  3.2 °C 34.0 °F /  1.1 °C 29.44 in /  996.8 hPa SW 6.6 mph /  10.6 km/h 11.5 mph /  18.5 km/h 86 % 0.00 in /  0 mm
01:51 37.8 °F /  3.2 °C 34.0 °F /  1.1 °C 29.44 in /  996.8 hPa WNW 7.9 mph /  12.7 km/h 11.5 mph /  18.5 km/h 86 % 0.00 in /  0 mm
01:56 37.7 °F /  3.2 °C 33.9 °F /  1.1 °C 29.45 in /  997.2 hPa NW 4.5 mph /  7.2 km/h 15.0 mph /  24.1 km/h 86 % 0.00 in /  0 mm
02:01 37.7 °F /  3.2 °C 33.9 °F /  1.1 °C 29.45 in /  997.2 hPa WSW 5.2 mph /  8.4 km/h 11.5 mph /  18.5 km/h 86 % 0.00 in /  0 mm
02:06 37.7 °F /  3.2 °C 33.9 °F /  1.1 °C 29.45 in /  997.2 hPa NW 8.8 mph /  14.2 km/h 13.8 mph /  22.2 km/h 86 % 0.00 in /  0 mm
02:11 37.7 °F /  3.2 °C 33.9 °F /  1.1 °C 29.46 in /  997.5 hPa WNW 7.4 mph /  11.9 km/h 15.0 mph /  24.1 km/h 86 % 0.00 in /  0 mm
02:16 37.6 °F /  3.1 °C 33.5 °F /  0.8 °C 29.46 in /  997.5 hPa WNW 5.4 mph /  8.7 km/h 13.8 mph /  22.2 km/h 85 % 0.00 in /  0 mm
02:21 37.6 °F /  3.1 °C 33.5 °F /  0.8 °C 29.46 in /  997.5 hPa WNW 9.3 mph /  15 km/h 17.3 mph /  27.8 km/h 85 % 0.00 in /  0 mm
02:26 37.5 °F /  3.1 °C 33.4 °F /  0.8 °C 29.47 in /  997.9 hPa WNW 4.5 mph /  7.2 km/h 8.1 mph /  13 km/h 85 % 0.00 in /  0 mm
02:31 37.5 °F /  3.1 °C 33.4 °F /  0.8 °C 29.47 in /  997.9 hPa NW 7.7 mph /  12.4 km/h 13.0 mph /  20.9 km/h 85 % 0.00 in /  0 mm
02:36 37.5 °F /  3.1 °C 33.4 °F /  0.8 °C 29.46 in /  997.5 hPa NW 5.8 mph /  9.3 km/h 9.2 mph /  14.8 km/h 85 % 0.00 in /  0 mm
02:37 37.4 °F /  3 °C 33.3 °F /  0.7 °C 29.46 in /  997.5 hPa WNW 6.1 mph /  9.8 km/h 9.2 mph /  14.8 km/h 85 % 0.00 in /  0 mm
02:42 37.4 °F /  3 °C 33.3 °F /  0.7 °C 29.47 in /  997.9 hPa WNW 5.4 mph /  8.7 km/h 11.5 mph /  18.5 km/h 85 % 0.00 in /  0 mm
02:47 37.3 °F /  2.9 °C 33.2 °F /  0.7 °C 29.47 in /  997.9 hPa NW 5.7 mph /  9.2 km/h 12.7 mph /  20.4 km/h 85 % 0.00 in /  0 mm
02:52 37.2 °F /  2.9 °C 33.1 °F /  0.6 °C 29.47 in /  997.9 hPa WNW 6.6 mph /  10.6 km/h 9.2 mph /  14.8 km/h 85 % 0.00 in /  0 mm
02:53 37.2 °F /  2.9 °C 33.1 °F /  0.6 °C 29.47 in /  997.9 hPa NW 7.5 mph /  12.1 km/h 14.0 mph /  22.5 km/h 85 % 0.00 in /  0 mm
02:58 37.2 °F /  2.9 °C 33.1 °F /  0.6 °C 29.46 in /  997.5 hPa West 7.6 mph /  12.2 km/h 16.1 mph /  25.9 km/h 85 % 0.00 in /  0 mm
03:03 37.1 °F /  2.8 °C 32.7 °F /  0.4 °C 29.46 in /  997.5 hPa WNW 10.1 mph /  16.3 km/h 17.3 mph /  27.8 km/h 84 % 0.00 in /  0 mm
03:08 37.1 °F /  2.8 °C 32.7 °F /  0.4 °C 29.47 in /  997.9 hPa NW 3.3 mph /  5.3 km/h 8.1 mph /  13 km/h 84 % 0.00 in /  0 mm
03:13 37.1 °F /  2.8 °C 32.7 °F /  0.4 °C 29.47 in /  997.9 hPa WNW 4.9 mph /  7.9 km/h 12.7 mph /  20.4 km/h 84 % 0.00 in /  0 mm
03:18 37.1 °F /  2.8 °C 32.7 °F /  0.4 °C 29.48 in /  998.2 hPa West 7.5 mph /  12.1 km/h 12.7 mph /  20.4 km/h 84 % 0.00 in /  0 mm
03:23 37.1 °F /  2.8 °C 32.7 °F /  0.4 °C 29.48 in /  998.2 hPa WNW 6.7 mph /  10.8 km/h 11.5 mph /  18.5 km/h 84 % 0.00 in /  0 mm
03:28 37.0 °F /  2.8 °C 32.3 °F /  0.2 °C 29.48 in /  998.2 hPa WNW 4.2 mph /  6.8 km/h 11.0 mph /  17.7 km/h 83 % 0.00 in /  0 mm
03:33 37.0 °F /  2.8 °C 32.3 °F /  0.2 °C 29.48 in /  998.2 hPa WNW 6.3 mph /  10.1 km/h 11.5 mph /  18.5 km/h 83 % 0.00 in /  0 mm
03:38 36.9 °F /  2.7 °C 32.2 °F /  0.1 °C 29.48 in /  998.2 hPa WNW 9.8 mph /  15.8 km/h 15.0 mph /  24.1 km/h 83 % 0.00 in /  0 mm
03:43 36.9 °F /  2.7 °C 32.2 °F /  0.1 °C 29.49 in /  998.5 hPa NW 7.4 mph /  11.9 km/h 11.5 mph /  18.5 km/h 83 % 0.00 in /  0 mm
03:48 36.9 °F /  2.7 °C 32.2 °F /  0.1 °C 29.49 in /  998.5 hPa NW 7.9 mph /  12.7 km/h 11.5 mph /  18.5 km/h 83 % 0.00 in /  0 mm
03:53 36.9 °F /  2.7 °C 32.2 °F /  0.1 °C 29.49 in /  998.5 hPa WNW 3.9 mph /  6.3 km/h 9.2 mph /  14.8 km/h 83 % 0.00 in /  0 mm
03:58 36.8 °F /  2.7 °C 32.1 °F /  0.1 °C 29.49 in /  998.5 hPa West 6.5 mph /  10.5 km/h 16.1 mph /  25.9 km/h 83 % 0.00 in /  0 mm
04:04 36.8 °F /  2.7 °C 32.1 °F /  0.1 °C 29.49 in /  998.5 hPa SW 8.4 mph /  13.5 km/h 12.7 mph /  20.4 km/h 83 % 0.00 in /  0 mm
04:09 36.8 °F /  2.7 °C 32.1 °F /  0.1 °C 29.49 in /  998.5 hPa WNW 5.6 mph /  9 km/h 9.2 mph /  14.8 km/h 83 % 0.00 in /  0 mm
04:14 36.8 °F /  2.7 °C 31.8 °F /  -0.1 °C 29.49 in /  998.5 hPa West 6.0 mph /  9.7 km/h 16.0 mph /  25.7 km/h 82 % 0.00 in /  0 mm
04:19 36.8 °F /  2.7 °C 31.8 °F /  -0.1 °C 29.50 in /  998.9 hPa WNW 7.0 mph /  11.3 km/h 15.0 mph /  24.1 km/h 82 % 0.00 in /  0 mm
04:24 36.8 °F /  2.7 °C 31.8 °F /  -0.1 °C 29.50 in /  998.9 hPa WNW 7.0 mph /  11.3 km/h 18.0 mph /  29 km/h 82 % 0.00 in /  0 mm
04:29 36.8 °F /  2.7 °C 31.5 °F /  -0.3 °C 29.50 in /  998.9 hPa WNW 7.0 mph /  11.3 km/h 16.0 mph /  25.7 km/h 81 % 0.00 in /  0 mm
04:34 36.8 °F /  2.7 °C 31.5 °F /  -0.3 °C 29.51 in /  999.2 hPa WNW 9.0 mph /  14.5 km/h 16.0 mph /  25.7 km/h 81 % 0.00 in /  0 mm
04:39 36.8 °F /  2.7 °C 31.5 °F /  -0.3 °C 29.51 in /  999.2 hPa WNW 9.4 mph /  15.1 km/h 19.6 mph /  31.5 km/h 81 % 0.00 in /  0 mm
04:44 36.9 °F /  2.7 °C 31.6 °F /  -0.2 °C 29.51 in /  999.2 hPa NW 6.7 mph /  10.8 km/h 15.0 mph /  24.1 km/h 81 % 0.00 in /  0 mm
04:49 36.9 °F /  2.7 °C 31.6 °F /  -0.2 °C 29.51 in /  999.2 hPa WNW 6.3 mph /  10.1 km/h 11.5 mph /  18.5 km/h 81 % 0.00 in /  0 mm
04:54 37.0 °F /  2.8 °C 31.7 °F /  -0.2 °C 29.51 in /  999.2 hPa NNW 8.1 mph /  13 km/h 18.4 mph /  29.6 km/h 81 % 0.00 in /  0 mm
04:59 36.9 °F /  2.7 °C 31.6 °F /  -0.2 °C 29.51 in /  999.2 hPa West 6.4 mph /  10.3 km/h 11.5 mph /  18.5 km/h 81 % 0.00 in /  0 mm
05:04 37.0 °F /  2.8 °C 31.7 °F /  -0.2 °C 29.51 in /  999.2 hPa West 5.0 mph /  8 km/h 12.7 mph /  20.4 km/h 81 % 0.00 in /  0 mm
05:09 36.9 °F /  2.7 °C 31.6 °F /  -0.2 °C 29.51 in /  999.2 hPa WNW 7.4 mph /  11.9 km/h 16.1 mph /  25.9 km/h 81 % 0.00 in /  0 mm
05:14 36.9 °F /  2.7 °C 31.6 °F /  -0.2 °C 29.52 in /  999.5 hPa WNW 9.5 mph /  15.3 km/h 13.0 mph /  20.9 km/h 81 % 0.00 in /  0 mm
05:19 37.0 °F /  2.8 °C 31.7 °F /  -0.2 °C 29.51 in /  999.2 hPa West 4.3 mph /  6.9 km/h 8.1 mph /  13 km/h 81 % 0.00 in /  0 mm
05:24 36.9 °F /  2.7 °C 31.6 °F /  -0.2 °C 29.52 in /  999.5 hPa WNW 9.8 mph /  15.8 km/h 11.5 mph /  18.5 km/h 81 % 0.00 in /  0 mm
05:29 36.9 °F /  2.7 °C 31.6 °F /  -0.2 °C 29.52 in /  999.5 hPa WSW 2.4 mph /  3.9 km/h 8.1 mph /  13 km/h 81 % 0.00 in /  0 mm
05:34 36.9 °F /  2.7 °C 31.6 °F /  -0.2 °C 29.52 in /  999.5 hPa West 6.1 mph /  9.8 km/h 17.3 mph /  27.8 km/h 81 % 0.00 in /  0 mm
05:39 36.9 °F /  2.7 °C 31.6 °F /  -0.2 °C 29.52 in /  999.5 hPa WNW 4.0 mph /  6.4 km/h 17.3 mph /  27.8 km/h 81 % 0.00 in /  0 mm
05:44 36.9 °F /  2.7 °C 31.6 °F /  -0.2 °C 29.53 in /  999.9 hPa WNW 6.5 mph /  10.5 km/h 12.0 mph /  19.3 km/h 81 % 0.00 in /  0 mm
05:50 36.9 °F /  2.7 °C 31.6 °F /  -0.2 °C 29.52 in /  999.5 hPa West 4.8 mph /  7.7 km/h 10.4 mph /  16.7 km/h 81 % 0.00 in /  0 mm
05:55 36.9 °F /  2.7 °C 31.6 °F /  -0.2 °C 29.53 in /  999.9 hPa WSW 8.6 mph /  13.8 km/h 16.1 mph /  25.9 km/h 81 % 0.00 in /  0 mm
06:00 36.9 °F /  2.7 °C 31.6 °F /  -0.2 °C 29.53 in /  999.9 hPa NW 6.6 mph /  10.6 km/h 15.0 mph /  24.1 km/h 81 % 0.00 in /  0 mm
06:05 36.9 °F /  2.7 °C 31.6 °F /  -0.2 °C 29.53 in /  999.9 hPa WNW 9.6 mph /  15.4 km/h 15.0 mph /  24.1 km/h 81 % 0.00 in /  0 mm
06:10 36.9 °F /  2.7 °C 31.6 °F /  -0.2 °C 29.53 in /  999.9 hPa WNW 9.2 mph /  14.8 km/h 16.1 mph /  25.9 km/h 81 % 0.00 in /  0 mm
06:15 37.0 °F /  2.8 °C 31.7 °F /  -0.2 °C 29.54 in /  1000.2 hPa West 5.5 mph /  8.9 km/h 12.7 mph /  20.4 km/h 81 % 0.00 in /  0 mm
06:20 37.0 °F /  2.8 °C 31.7 °F /  -0.2 °C 29.54 in /  1000.2 hPa WNW 5.7 mph /  9.2 km/h 8.1 mph /  13 km/h 81 % 0.00 in /  0 mm
06:25 37.0 °F /  2.8 °C 31.7 °F /  -0.2 °C 29.54 in /  1000.2 hPa WSW 10.8 mph /  17.4 km/h 15.0 mph /  24.1 km/h 81 % 0.00 in /  0 mm
06:30 37.0 °F /  2.8 °C 31.7 °F /  -0.2 °C 29.54 in /  1000.2 hPa WNW 6.6 mph /  10.6 km/h 11.5 mph /  18.5 km/h 81 % 0.00 in /  0 mm
06:35 37.0 °F /  2.8 °C 31.7 °F /  -0.2 °C 29.54 in /  1000.2 hPa WNW 4.3 mph /  6.9 km/h 8.1 mph /  13 km/h 81 % 0.00 in /  0 mm
06:40 37.0 °F /  2.8 °C 31.7 °F /  -0.2 °C 29.54 in /  1000.2 hPa NNW 8.8 mph /  14.2 km/h 13.8 mph /  22.2 km/h 81 % 0.00 in /  0 mm
06:45 37.0 °F /  2.8 °C 31.7 °F /  -0.2 °C 29.55 in /  1000.6 hPa NNW 6.9 mph /  11.1 km/h 11.5 mph /  18.5 km/h 81 % 0.00 in /  0 mm
06:50 37.0 °F /  2.8 °C 31.7 °F /  -0.2 °C 29.55 in /  1000.6 hPa West 9.8 mph /  15.8 km/h 17.3 mph /  27.8 km/h 81 % 0.00 in /  0 mm
06:55 37.0 °F /  2.8 °C 31.7 °F /  -0.2 °C 29.55 in /  1000.6 hPa WNW 8.0 mph /  12.9 km/h 13.0 mph /  20.9 km/h 81 % 0.00 in /  0 mm
07:00 37.1 °F /  2.8 °C 31.8 °F /  -0.1 °C 29.55 in /  1000.6 hPa North 4.1 mph /  6.6 km/h 15.0 mph /  24.1 km/h 81 % 0.00 in /  0 mm
07:05 37.1 °F /  2.8 °C 31.8 °F /  -0.1 °C 29.55 in /  1000.6 hPa NW 4.0 mph /  6.4 km/h 9.2 mph /  14.8 km/h 81 % 0.00 in /  0 mm
07:10 37.1 °F /  2.8 °C 31.8 °F /  -0.1 °C 29.55 in /  1000.6 hPa NW 5.7 mph /  9.2 km/h 9.2 mph /  14.8 km/h 81 % 0.00 in /  0 mm
07:15 37.1 °F /  2.8 °C 31.8 °F /  -0.1 °C 29.55 in /  1000.6 hPa NW 5.1 mph /  8.2 km/h 11.5 mph /  18.5 km/h 81 % 0.00 in /  0 mm
07:20 37.1 °F /  2.8 °C 31.8 °F /  -0.1 °C 29.56 in /  1000.9 hPa WSW 2.7 mph /  4.3 km/h 10.4 mph /  16.7 km/h 81 % 0.00 in /  0 mm
07:26 37.2 °F /  2.9 °C 31.9 °F /  -0.1 °C 29.56 in /  1000.9 hPa WNW 5.4 mph /  8.7 km/h 13.8 mph /  22.2 km/h 81 % 0.00 in /  0 mm
07:31 37.2 °F /  2.9 °C 31.9 °F /  -0.1 °C 29.56 in /  1000.9 hPa WNW 4.1 mph /  6.6 km/h 6.9 mph /  11.1 km/h 81 % 0.00 in /  0 mm
07:36 37.3 °F /  2.9 °C 32.0 °F /  0 °C 29.56 in /  1000.9 hPa NW 6.9 mph /  11.1 km/h 12.0 mph /  19.3 km/h 81 % 0.00 in /  0 mm
07:41 37.4 °F /  3 °C 32.1 °F /  0.1 °C 29.56 in /  1000.9 hPa West 2.7 mph /  4.3 km/h 11.5 mph /  18.5 km/h 81 % 0.00 in /  0 mm
07:46 37.4 °F /  3 °C 32.1 °F /  0.1 °C 29.57 in /  1001.2 hPa NW 7.6 mph /  12.2 km/h 15.0 mph /  24.1 km/h 81 % 0.00 in /  0 mm
07:51 37.5 °F /  3.1 °C 31.9 °F /  -0.1 °C 29.57 in /  1001.2 hPa WNW 3.6 mph /  5.8 km/h 13.8 mph /  22.2 km/h 80 % 0.00 in /  0 mm
07:56 37.7 °F /  3.2 °C 32.4 °F /  0.2 °C 29.57 in /  1001.2 hPa WNW 9.5 mph /  15.3 km/h 12.7 mph /  20.4 km/h 81 % 0.00 in /  0 mm
08:01 37.8 °F /  3.2 °C 32.5 °F /  0.3 °C 29.58 in /  1001.6 hPa West 7.4 mph /  11.9 km/h 11.5 mph /  18.5 km/h 81 % 0.00 in /  0 mm
08:06 38.0 °F /  3.3 °C 32.7 °F /  0.4 °C 29.58 in /  1001.6 hPa WNW 5.2 mph /  8.4 km/h 11.5 mph /  18.5 km/h 81 % 0.00 in /  0 mm
08:11 38.1 °F /  3.4 °C 32.8 °F /  0.4 °C 29.58 in /  1001.6 hPa NW 5.7 mph /  9.2 km/h 11.5 mph /  18.5 km/h 81 % 0.00 in /  0 mm
08:16 38.4 °F /  3.6 °C 32.8 °F /  0.4 °C 29.58 in /  1001.6 hPa NW 5.1 mph /  8.2 km/h 8.1 mph /  13 km/h 80 % 0.00 in /  0 mm
08:21 38.6 °F /  3.7 °C 33.0 °F /  0.6 °C 29.59 in /  1001.9 hPa WNW 6.0 mph /  9.7 km/h 11.5 mph /  18.5 km/h 80 % 0.00 in /  0 mm
08:26 38.8 °F /  3.8 °C 32.8 °F /  0.4 °C 29.59 in /  1001.9 hPa West 5.8 mph /  9.3 km/h 11.5 mph /  18.5 km/h 79 % 0.00 in /  0 mm
08:32 39.0 °F /  3.9 °C 33.0 °F /  0.6 °C 29.59 in /  1001.9 hPa West 5.3 mph /  8.5 km/h 11.5 mph /  18.5 km/h 79 % 0.00 in /  0 mm
08:37 39.2 °F /  4 °C 33.2 °F /  0.7 °C 29.60 in /  1002.3 hPa WNW 9.1 mph /  14.6 km/h 9.2 mph /  14.8 km/h 79 % 0.00 in /  0 mm
08:42 39.3 °F /  4.1 °C 33.3 °F /  0.7 °C 29.60 in /  1002.3 hPa WNW 6.0 mph /  9.7 km/h 10.4 mph /  16.7 km/h 79 % 0.00 in /  0 mm
08:47 39.3 °F /  4.1 °C 33.0 °F /  0.6 °C 29.60 in /  1002.3 hPa West 4.8 mph /  7.7 km/h 12.0 mph /  19.3 km/h 78 % 0.00 in /  0 mm
08:52 39.3 °F /  4.1 °C 33.3 °F /  0.7 °C 29.60 in /  1002.3 hPa West 8.3 mph /  13.4 km/h 13.8 mph /  22.2 km/h 79 % 0.00 in /  0 mm
08:57 39.4 °F /  4.1 °C 33.4 °F /  0.8 °C 29.60 in /  1002.3 hPa South 4.2 mph /  6.8 km/h 9.2 mph /  14.8 km/h 79 % 0.00 in /  0 mm
09:02 39.5 °F /  4.2 °C 33.5 °F /  0.8 °C 29.60 in /  1002.3 hPa SW 3.1 mph /  5 km/h 9.2 mph /  14.8 km/h 79 % 0.00 in /  0 mm
09:07 39.5 °F /  4.2 °C 33.5 °F /  0.8 °C 29.61 in /  1002.6 hPa West 3.9 mph /  6.3 km/h 9.0 mph /  14.5 km/h 79 % 0.00 in /  0 mm
09:12 39.6 °F /  4.2 °C 33.6 °F /  0.9 °C 29.60 in /  1002.3 hPa West 4.1 mph /  6.6 km/h 11.5 mph /  18.5 km/h 79 % 0.00 in /  0 mm
09:17 39.6 °F /  4.2 °C 33.6 °F /  0.9 °C 29.61 in /  1002.6 hPa WSW 4.5 mph /  7.2 km/h 8.0 mph /  12.9 km/h 79 % 0.00 in /  0 mm
09:22 39.7 °F /  4.3 °C 33.7 °F /  0.9 °C 29.61 in /  1002.6 hPa West 6.1 mph /  9.8 km/h 8.1 mph /  13 km/h 79 % 0.00 in /  0 mm
09:27 39.7 °F /  4.3 °C 33.7 °F /  0.9 °C 29.60 in /  1002.3 hPa West 5.0 mph /  8 km/h 10.4 mph /  16.7 km/h 79 % 0.00 in /  0 mm
09:32 39.8 °F /  4.3 °C 33.5 °F /  0.8 °C 29.61 in /  1002.6 hPa West 7.6 mph /  12.2 km/h 10.4 mph /  16.7 km/h 78 % 0.00 in /  0 mm
09:37 39.8 °F /  4.3 °C 33.5 °F /  0.8 °C 29.61 in /  1002.6 hPa WSW 5.5 mph /  8.9 km/h 11.5 mph /  18.5 km/h 78 % 0.00 in /  0 mm
09:42 40.0 °F /  4.4 °C 34.0 °F /  1.1 °C 29.61 in /  1002.6 hPa NW 6.9 mph /  11.1 km/h 12.7 mph /  20.4 km/h 79 % 0.00 in /  0 mm
09:47 40.1 °F /  4.5 °C 34.1 °F /  1.2 °C 29.61 in /  1002.6 hPa WNW 2.9 mph /  4.7 km/h 6.0 mph /  9.7 km/h 79 % 0.00 in /  0 mm
09:52 40.2 °F /  4.6 °C 34.2 °F /  1.2 °C 29.61 in /  1002.6 hPa West 6.9 mph /  11.1 km/h 9.2 mph /  14.8 km/h 79 % 0.00 in /  0 mm
09:57 40.4 °F /  4.7 °C 34.1 °F /  1.2 °C 29.62 in /  1002.9 hPa West 4.5 mph /  7.2 km/h 10.4 mph /  16.7 km/h 78 % 0.00 in /  0 mm
10:02 40.5 °F /  4.7 °C 34.2 °F /  1.2 °C 29.62 in /  1002.9 hPa SSW 5.1 mph /  8.2 km/h 8.1 mph /  13 km/h 78 % 0.00 in /  0 mm
10:07 40.6 °F /  4.8 °C 34.0 °F /  1.1 °C 29.62 in /  1002.9 hPa West 5.3 mph /  8.5 km/h 11.5 mph /  18.5 km/h 77 % 0.00 in /  0 mm
10:13 40.7 °F /  4.8 °C 34.0 °F /  1.1 °C 29.62 in /  1002.9 hPa WSW 9.1 mph /  14.6 km/h 12.0 mph /  19.3 km/h 77 % 0.00 in /  0 mm
10:18 40.8 °F /  4.9 °C 34.1 °F /  1.2 °C 29.62 in /  1002.9 hPa WSW 6.4 mph /  10.3 km/h 10.4 mph /  16.7 km/h 77 % 0.00 in /  0 mm
10:23 40.9 °F /  4.9 °C 34.2 °F /  1.2 °C 29.62 in /  1002.9 hPa West 4.0 mph /  6.4 km/h 6.9 mph /  11.1 km/h 77 % 0.00 in /  0 mm
10:28 41.0 °F /  5 °C 34.3 °F /  1.3 °C 29.62 in /  1002.9 hPa WNW 2.6 mph /  4.2 km/h 8.1 mph /  13 km/h 77 % 0.00 in /  0 mm
10:33 41.2 °F /  5.1 °C 34.5 °F /  1.4 °C 29.63 in /  1003.3 hPa West 1.4 mph /  2.3 km/h 6.9 mph /  11.1 km/h 77 % 0.00 in /  0 mm
10:38 41.4 °F /  5.2 °C 34.4 °F /  1.3 °C 29.63 in /  1003.3 hPa WNW 3.7 mph /  6 km/h 11.5 mph /  18.5 km/h 76 % 0.00 in /  0 mm
10:43 41.5 °F /  5.3 °C 34.5 °F /  1.4 °C 29.62 in /  1002.9 hPa WNW 4.4 mph /  7.1 km/h 8.1 mph /  13 km/h 76 % 0.00 in /  0 mm
10:48 41.8 °F /  5.4 °C 34.5 °F /  1.4 °C 29.62 in /  1002.9 hPa WSW 4.0 mph /  6.4 km/h 9.2 mph /  14.8 km/h 75 % 0.00 in /  0 mm
10:53 42.2 °F /  5.7 °C 34.8 °F /  1.6 °C 29.62 in /  1002.9 hPa West 4.6 mph /  7.4 km/h 7.0 mph /  11.3 km/h 75 % 0.00 in /  0 mm
10:58 42.4 °F /  5.8 °C 34.7 °F /  1.5 °C 29.61 in /  1002.6 hPa West 3.6 mph /  5.8 km/h 10.4 mph /  16.7 km/h 74 % 0.00 in /  0 mm
11:00 42.5 °F /  5.8 °C 34.8 °F /  1.6 °C 29.61 in /  1002.6 hPa West 8.8 mph /  14.2 km/h 13.8 mph /  22.2 km/h 74 % 0.00 in /  0 mm
11:05 43.0 °F /  6.1 °C 34.9 °F /  1.6 °C 29.62 in /  1002.9 hPa WNW 9.4 mph /  15.1 km/h 12.7 mph /  20.4 km/h 73 % 0.00 in /  0 mm
11:10 43.5 °F /  6.4 °C 35.4 °F /  1.9 °C 29.62 in /  1002.9 hPa WSW 8.3 mph /  13.4 km/h 14.0 mph /  22.5 km/h 73 % 0.00 in /  0 mm
11:15 43.9 °F /  6.6 °C 35.1 °F /  1.7 °C 29.62 in /  1002.9 hPa West 9.5 mph /  15.3 km/h 17.0 mph /  27.4 km/h 71 % 0.00 in /  0 mm
11:20 44.2 °F /  6.8 °C 35.0 °F /  1.7 °C 29.62 in /  1002.9 hPa West 7.1 mph /  11.4 km/h 12.0 mph /  19.3 km/h 70 % 0.00 in /  0 mm
11:25 44.5 °F /  6.9 °C 35.3 °F /  1.8 °C 29.62 in /  1002.9 hPa WSW 7.1 mph /  11.4 km/h 15.0 mph /  24.1 km/h 70 % 0.00 in /  0 mm
11:30 44.6 °F /  7 °C 35.1 °F /  1.7 °C 29.62 in /  1002.9 hPa WNW 9.2 mph /  14.8 km/h 17.0 mph /  27.4 km/h 69 % 0.00 in /  0 mm
11:35 44.7 °F /  7.1 °C 35.1 °F /  1.7 °C 29.61 in /  1002.6 hPa WSW 8.2 mph /  13.2 km/h 11.5 mph /  18.5 km/h 69 % 0.00 in /  0 mm
11:40 44.8 °F /  7.1 °C 34.9 °F /  1.6 °C 29.60 in /  1002.3 hPa West 9.6 mph /  15.4 km/h 15.0 mph /  24.1 km/h 68 % 0.00 in /  0 mm
11:45 44.8 °F /  7.1 °C 34.9 °F /  1.6 °C 29.60 in /  1002.3 hPa WSW 8.4 mph /  13.5 km/h 17.3 mph /  27.8 km/h 68 % 0.00 in /  0 mm
11:51 44.7 °F /  7.1 °C 34.8 °F /  1.6 °C 29.60 in /  1002.3 hPa WNW 9.6 mph /  15.4 km/h 17.3 mph /  27.8 km/h 68 % 0.00 in /  0 mm
11:56 44.7 °F /  7.1 °C 34.8 °F /  1.6 °C 29.60 in /  1002.3 hPa WNW 6.3 mph /  10.1 km/h 11.5 mph /  18.5 km/h 68 % 0.00 in /  0 mm
12:01 44.9 °F /  7.2 °C 35.0 °F /  1.7 °C 29.59 in /  1001.9 hPa West 4.6 mph /  7.4 km/h 10.4 mph /  16.7 km/h 68 % 0.00 in /  0 mm
12:06 45.0 °F /  7.2 °C 35.1 °F /  1.7 °C 29.60 in /  1002.3 hPa West 3.8 mph /  6.1 km/h 11.5 mph /  18.5 km/h 68 % 0.00 in /  0 mm
12:11 45.2 °F /  7.3 °C 35.3 °F /  1.8 °C 29.59 in /  1001.9 hPa West 7.3 mph /  11.7 km/h 13.8 mph /  22.2 km/h 68 % 0.00 in /  0 mm
12:16 45.5 °F /  7.5 °C 35.2 °F /  1.8 °C 29.59 in /  1001.9 hPa West 5.7 mph /  9.2 km/h 10.4 mph /  16.7 km/h 67 % 0.00 in /  0 mm
12:21 45.8 °F /  7.7 °C 34.7 °F /  1.5 °C 29.60 in /  1002.3 hPa NW 3.6 mph /  5.8 km/h 9.2 mph /  14.8 km/h 65 % 0.00 in /  0 mm
12:26 45.9 °F /  7.7 °C 34.8 °F /  1.6 °C 29.61 in /  1002.6 hPa WNW 3.7 mph /  6 km/h 10.4 mph /  16.7 km/h 65 % 0.00 in /  0 mm
12:31 45.9 °F /  7.7 °C 34.8 °F /  1.6 °C 29.61 in /  1002.6 hPa West 7.1 mph /  11.4 km/h 11.5 mph /  18.5 km/h 65 % 0.00 in /  0 mm
12:36 45.8 °F /  7.7 °C 34.7 °F /  1.5 °C 29.60 in /  1002.3 hPa SW 7.6 mph /  12.2 km/h 12.0 mph /  19.3 km/h 65 % 0.00 in /  0 mm
12:41 45.9 °F /  7.7 °C 34.8 °F /  1.6 °C 29.59 in /  1001.9 hPa WNW 5.6 mph /  9 km/h 16.1 mph /  25.9 km/h 65 % 0.00 in /  0 mm
12:46 46.3 °F /  7.9 °C 35.9 °F /  2.2 °C 29.59 in /  1001.9 hPa West 1.5 mph /  2.4 km/h 4.0 mph /  6.4 km/h 67 % 0.00 in /  0 mm
12:51 46.6 °F /  8.1 °C 35.5 °F /  1.9 °C 29.58 in /  1001.6 hPa West 2.6 mph /  4.2 km/h 6.9 mph /  11.1 km/h 65 % 0.00 in /  0 mm
12:56 46.9 °F /  8.3 °C 35.4 °F /  1.9 °C 29.59 in /  1001.9 hPa SSW 7.3 mph /  11.7 km/h 11.0 mph /  17.7 km/h 64 % 0.00 in /  0 mm
13:01 47.2 °F /  8.4 °C 35.2 °F /  1.8 °C 29.59 in /  1001.9 hPa WNW 5.0 mph /  8 km/h 10.4 mph /  16.7 km/h 63 % 0.00 in /  0 mm
13:06 47.4 °F /  8.6 °C 35.4 °F /  1.9 °C 29.59 in /  1001.9 hPa NW 2.3 mph /  3.7 km/h 4.6 mph /  7.4 km/h 63 % 0.00 in /  0 mm
13:11 47.6 °F /  8.7 °C 35.6 °F /  2 °C 29.59 in /  1001.9 hPa WNW 3.5 mph /  5.6 km/h 6.9 mph /  11.1 km/h 63 % 0.00 in /  0 mm
13:17 47.9 °F /  8.8 °C 35.5 °F /  1.9 °C 29.59 in /  1001.9 hPa SW 7.9 mph /  12.7 km/h 12.7 mph /  20.4 km/h 62 % 0.00 in /  0 mm
13:22 47.9 °F /  8.8 °C 35.5 °F /  1.9 °C 29.59 in /  1001.9 hPa WSW 5.1 mph /  8.2 km/h 6.9 mph /  11.1 km/h 62 % 0.00 in /  0 mm
13:27 48.0 °F /  8.9 °C 35.6 °F /  2 °C 29.59 in /  1001.9 hPa WSW 5.9 mph /  9.5 km/h 10.4 mph /  16.7 km/h 62 % 0.00 in /  0 mm
13:32 48.1 °F /  8.9 °C 35.3 °F /  1.8 °C 29.59 in /  1001.9 hPa WNW 6.6 mph /  10.6 km/h 15.0 mph /  24.1 km/h 61 % 0.00 in /  0 mm
13:37 48.1 °F /  8.9 °C 34.9 °F /  1.6 °C 29.60 in /  1002.3 hPa NW 4.6 mph /  7.4 km/h 13.8 mph /  22.2 km/h 60 % 0.00 in /  0 mm
13:42 48.1 °F /  8.9 °C 34.9 °F /  1.6 °C 29.60 in /  1002.3 hPa West 8.2 mph /  13.2 km/h 16.1 mph /  25.9 km/h 60 % 0.00 in /  0 mm
13:47 47.9 °F /  8.8 °C 34.7 °F /  1.5 °C 29.60 in /  1002.3 hPa NW 6.4 mph /  10.3 km/h 12.7 mph /  20.4 km/h 60 % 0.00 in /  0 mm
13:52 47.9 °F /  8.8 °C 35.1 °F /  1.7 °C 29.60 in /  1002.3 hPa West 6.5 mph /  10.5 km/h 13.8 mph /  22.2 km/h 61 % 0.00 in /  0 mm
13:57 47.8 °F /  8.8 °C 35.4 °F /  1.9 °C 29.60 in /  1002.3 hPa West 5.6 mph /  9 km/h 15.0 mph /  24.1 km/h 62 % 0.00 in /  0 mm
14:02 47.8 °F /  8.8 °C 35.8 °F /  2.1 °C 29.60 in /  1002.3 hPa WNW 4.6 mph /  7.4 km/h 9.2 mph /  14.8 km/h 63 % 0.00 in /  0 mm
14:07 47.9 °F /  8.8 °C 35.5 °F /  1.9 °C 29.60 in /  1002.3 hPa WSW 7.4 mph /  11.9 km/h 12.0 mph /  19.3 km/h 62 % 0.00 in /  0 mm
14:12 47.9 °F /  8.8 °C 35.9 °F /  2.2 °C 29.61 in /  1002.6 hPa WSW 5.5 mph /  8.9 km/h 10.4 mph /  16.7 km/h 63 % 0.00 in /  0 mm
14:17 47.8 °F /  8.8 °C 35.8 °F /  2.1 °C 29.60 in /  1002.3 hPa West 4.2 mph /  6.8 km/h 17.3 mph /  27.8 km/h 63 % 0.00 in /  0 mm
14:22 47.8 °F /  8.8 °C 35.8 °F /  2.1 °C 29.61 in /  1002.6 hPa WSW 8.9 mph /  14.3 km/h 12.7 mph /  20.4 km/h 63 % 0.00 in /  0 mm
14:27 47.7 °F /  8.7 °C 35.3 °F /  1.8 °C 29.62 in /  1002.9 hPa West 9.4 mph /  15.1 km/h 13.8 mph /  22.2 km/h 62 % 0.00 in /  0 mm
14:32 47.6 °F /  8.7 °C 35.6 °F /  2 °C 29.61 in /  1002.6 hPa WSW 7.3 mph /  11.7 km/h 11.5 mph /  18.5 km/h 63 % 0.00 in /  0 mm
14:37 47.4 °F /  8.6 °C 35.4 °F /  1.9 °C 29.61 in /  1002.6 hPa West 5.3 mph /  8.5 km/h 8.1 mph /  13 km/h 63 % 0.00 in /  0 mm
14:43 47.2 °F /  8.4 °C 35.6 °F /  2 °C 29.62 in /  1002.9 hPa WNW 8.2 mph /  13.2 km/h 13.8 mph /  22.2 km/h 64 % 0.00 in /  0 mm
14:48 47.0 °F /  8.3 °C 35.4 °F /  1.9 °C 29.62 in /  1002.9 hPa SW 8.4 mph /  13.5 km/h 11.5 mph /  18.5 km/h 64 % 0.00 in /  0 mm
14:53 46.9 °F /  8.3 °C 35.4 °F /  1.9 °C 29.62 in /  1002.9 hPa NNW 5.1 mph /  8.2 km/h 11.5 mph /  18.5 km/h 64 % 0.00 in /  0 mm
14:58 46.8 °F /  8.2 °C 35.6 °F /  2 °C 29.63 in /  1003.3 hPa SW 5.0 mph /  8 km/h 12.7 mph /  20.4 km/h 65 % 0.00 in /  0 mm
15:03 46.8 °F /  8.2 °C 35.6 °F /  2 °C 29.63 in /  1003.3 hPa WNW 5.6 mph /  9 km/h 12.7 mph /  20.4 km/h 65 % 0.00 in /  0 mm
15:08 46.7 °F /  8.2 °C 35.6 °F /  2 °C 29.62 in /  1002.9 hPa SW 5.1 mph /  8.2 km/h 11.5 mph /  18.5 km/h 65 % 0.00 in /  0 mm
15:13 46.6 °F /  8.1 °C 35.5 °F /  1.9 °C 29.62 in /  1002.9 hPa WSW 9.4 mph /  15.1 km/h 16.0 mph /  25.7 km/h 65 % 0.00 in /  0 mm
15:18 46.5 °F /  8.1 °C 35.4 °F /  1.9 °C 29.62 in /  1002.9 hPa WNW 7.0 mph /  11.3 km/h 15.0 mph /  24.1 km/h 65 % 0.00 in /  0 mm
15:23 46.4 °F /  8 °C 35.7 °F /  2.1 °C 29.62 in /  1002.9 hPa WNW 6.5 mph /  10.5 km/h 16.1 mph /  25.9 km/h 66 % 0.00 in /  0 mm
15:28 46.3 °F /  7.9 °C 35.6 °F /  2 °C 29.62 in /  1002.9 hPa SW 7.3 mph /  11.7 km/h 10.4 mph /  16.7 km/h 66 % 0.00 in /  0 mm
15:33 46.2 °F /  7.9 °C 35.5 °F /  1.9 °C 29.63 in /  1003.3 hPa WSW 6.1 mph /  9.8 km/h 11.5 mph /  18.5 km/h 66 % 0.00 in /  0 mm
15:38 46.1 °F /  7.8 °C 35.7 °F /  2.1 °C 29.63 in /  1003.3 hPa West 7.5 mph /  12.1 km/h 11.5 mph /  18.5 km/h 67 % 0.00 in /  0 mm
15:43 46.0 °F /  7.8 °C 35.7 °F /  2.1 °C 29.63 in /  1003.3 hPa WNW 6.6 mph /  10.6 km/h 12.7 mph /  20.4 km/h 67 % 0.00 in /  0 mm
15:48 45.9 °F /  7.7 °C 35.6 °F /  2 °C 29.63 in /  1003.3 hPa West 4.5 mph /  7.2 km/h 10.4 mph /  16.7 km/h 67 % 0.00 in /  0 mm
15:53 45.8 °F /  7.7 °C 35.8 °F /  2.1 °C 29.63 in /  1003.3 hPa West 3.4 mph /  5.5 km/h 9.2 mph /  14.8 km/h 68 % 0.00 in /  0 mm
15:58 45.6 °F /  7.6 °C 36.0 °F /  2.2 °C 29.63 in /  1003.3 hPa SW 3.6 mph /  5.8 km/h 10.4 mph /  16.7 km/h 69 % 0.00 in /  0 mm
16:03 45.4 °F /  7.4 °C 35.8 °F /  2.1 °C 29.63 in /  1003.3 hPa WSW 5.4 mph /  8.7 km/h 11.5 mph /  18.5 km/h 69 % 0.00 in /  0 mm
16:08 45.2 °F /  7.3 °C 35.6 °F /  2 °C 29.63 in /  1003.3 hPa NW 5.2 mph /  8.4 km/h 11.0 mph /  17.7 km/h 69 % 0.00 in /  0 mm
16:13 45.0 °F /  7.2 °C 35.8 °F /  2.1 °C 29.63 in /  1003.3 hPa WNW 4.0 mph /  6.4 km/h 8.1 mph /  13 km/h 70 % 0.00 in /  0 mm
16:18 44.9 °F /  7.2 °C 35.7 °F /  2.1 °C 29.63 in /  1003.3 hPa WNW 3.9 mph /  6.3 km/h 9.2 mph /  14.8 km/h 70 % 0.00 in /  0 mm
16:24 44.7 °F /  7.1 °C 35.5 °F /  1.9 °C 29.62 in /  1002.9 hPa WNW 4.6 mph /  7.4 km/h 6.0 mph /  9.7 km/h 70 % 0.00 in /  0 mm
16:29 44.6 °F /  7 °C 35.4 °F /  1.9 °C 29.62 in /  1002.9 hPa WSW 5.8 mph /  9.3 km/h 9.2 mph /  14.8 km/h 70 % 0.00 in /  0 mm
16:34 44.4 °F /  6.9 °C 35.6 °F /  2 °C 29.62 in /  1002.9 hPa West 3.0 mph /  4.8 km/h 15.0 mph /  24.1 km/h 71 % 0.00 in /  0 mm
16:39 44.2 °F /  6.8 °C 35.4 °F /  1.9 °C 29.62 in /  1002.9 hPa WNW 5.0 mph /  8 km/h 10.0 mph /  16.1 km/h 71 % 0.00 in /  0 mm
16:44 44.1 °F /  6.7 °C 35.3 °F /  1.8 °C 29.63 in /  1003.3 hPa West 3.0 mph /  4.8 km/h 15.0 mph /  24.1 km/h 71 % 0.00 in /  0 mm
16:49 43.9 °F /  6.6 °C 35.1 °F /  1.7 °C 29.63 in /  1003.3 hPa West 6.0 mph /  9.7 km/h 12.0 mph /  19.3 km/h 71 % 0.00 in /  0 mm
16:54 43.8 °F /  6.6 °C 35.4 °F /  1.9 °C 29.63 in /  1003.3 hPa NNW 2.4 mph /  3.9 km/h 10.4 mph /  16.7 km/h 72 % 0.00 in /  0 mm
16:59 43.7 °F /  6.5 °C 35.3 °F /  1.8 °C 29.64 in /  1003.6 hPa WNW 3.0 mph /  4.8 km/h 7.0 mph /  11.3 km/h 72 % 0.00 in /  0 mm
17:04 43.5 °F /  6.4 °C 35.1 °F /  1.7 °C 29.64 in /  1003.6 hPa West 2.9 mph /  4.7 km/h 6.0 mph /  9.7 km/h 72 % 0.00 in /  0 mm
17:09 43.4 °F /  6.3 °C 35.0 °F /  1.7 °C 29.64 in /  1003.6 hPa West 3.8 mph /  6.1 km/h 6.9 mph /  11.1 km/h 72 % 0.00 in /  0 mm
17:14 43.4 °F /  6.3 °C 35.3 °F /  1.8 °C 29.65 in /  1003.9 hPa Calm   1.2 mph /  1.9 km/h 73 % 0.00 in /  0 mm
17:19 43.3 °F /  6.3 °C 35.2 °F /  1.8 °C 29.65 in /  1003.9 hPa WSW 0.3 mph /  0.5 km/h 3.5 mph /  5.6 km/h 73 % 0.00 in /  0 mm
17:24 43.2 °F /  6.2 °C 35.1 °F /  1.7 °C 29.64 in /  1003.6 hPa Calm   1.2 mph /  1.9 km/h 73 % 0.00 in /  0 mm
17:29 43.1 °F /  6.2 °C 35.0 °F /  1.7 °C 29.64 in /  1003.6 hPa NW 2.6 mph /  4.2 km/h 3.5 mph /  5.6 km/h 73 % 0.00 in /  0 mm
17:34 43.0 °F /  6.1 °C 34.9 °F /  1.6 °C 29.64 in /  1003.6 hPa NW 1.4 mph /  2.3 km/h 3.5 mph /  5.6 km/h 73 % 0.00 in /  0 mm
17:39 42.8 °F /  6 °C 35.1 °F /  1.7 °C 29.64 in /  1003.6 hPa WNW 1.7 mph /  2.7 km/h 3.5 mph /  5.6 km/h 74 % 0.00 in /  0 mm
17:44 42.7 °F /  5.9 °C 35.0 °F /  1.7 °C 29.64 in /  1003.6 hPa WNW 0.3 mph /  0.5 km/h 1.2 mph /  1.9 km/h 74 % 0.00 in /  0 mm
17:49 42.6 °F /  5.9 °C 35.2 °F /  1.8 °C 29.64 in /  1003.6 hPa WNW 0.4 mph /  0.6 km/h 3.5 mph /  5.6 km/h 75 % 0.00 in /  0 mm
17:54 42.5 °F /  5.8 °C 35.1 °F /  1.7 °C 29.65 in /  1003.9 hPa West 0.8 mph /  1.3 km/h 1.2 mph /  1.9 km/h 75 % 0.00 in /  0 mm
17:59 42.4 °F /  5.8 °C 35.0 °F /  1.7 °C 29.65 in /  1003.9 hPa West 0.5 mph /  0.8 km/h 2.3 mph /  3.7 km/h 75 % 0.00 in /  0 mm
18:04 42.3 °F /  5.7 °C 35.3 °F /  1.8 °C 29.65 in /  1003.9 hPa West 0.6 mph /  1 km/h 3.5 mph /  5.6 km/h 76 % 0.00 in /  0 mm
18:10 42.1 °F /  5.6 °C 35.1 °F /  1.7 °C 29.65 in /  1003.9 hPa West 0.9 mph /  1.4 km/h 1.2 mph /  1.9 km/h 76 % 0.00 in /  0 mm
18:15 42.0 °F /  5.6 °C 35.0 °F /  1.7 °C 29.64 in /  1003.6 hPa Calm     76 % 0.00 in /  0 mm
18:20 41.9 °F /  5.5 °C 34.9 °F /  1.6 °C 29.64 in /  1003.6 hPa Calm   1.2 mph /  1.9 km/h 76 % 0.00 in /  0 mm
18:25 41.7 °F /  5.4 °C 35.0 °F /  1.7 °C 29.64 in /  1003.6 hPa West 0.1 mph /  0.2 km/h 1.2 mph /  1.9 km/h 77 % 0.00 in /  0 mm
18:30 41.6 °F /  5.3 °C 34.9 °F /  1.6 °C 29.64 in /  1003.6 hPa Calm     77 % 0.00 in /  0 mm
18:35 41.4 °F /  5.2 °C 35.1 °F /  1.7 °C 29.64 in /  1003.6 hPa West 0.4 mph /  0.6 km/h 2.3 mph /  3.7 km/h 78 % 0.00 in /  0 mm
18:40 41.3 °F /  5.2 °C 35.0 °F /  1.7 °C 29.63 in /  1003.3 hPa Calm     78 % 0.00 in /  0 mm
18:45 41.2 °F /  5.1 °C 35.2 °F /  1.8 °C 29.64 in /  1003.6 hPa Calm     79 % 0.00 in /  0 mm
18:50 41.1 °F /  5.1 °C 35.1 °F /  1.7 °C 29.64 in /  1003.6 hPa Calm     79 % 0.00 in /  0 mm
18:55 41.0 °F /  5 °C 35.3 °F /  1.8 °C 29.64 in /  1003.6 hPa Calm     80 % 0.00 in /  0 mm
19:00 40.8 °F /  4.9 °C 35.1 °F /  1.7 °C 29.64 in /  1003.6 hPa Calm     80 % 0.00 in /  0 mm
19:05 40.6 °F /  4.8 °C 34.9 °F /  1.6 °C 29.63 in /  1003.3 hPa Calm     80 % 0.00 in /  0 mm
19:10 40.5 °F /  4.7 °C 35.1 °F /  1.7 °C 29.62 in /  1002.9 hPa Calm     81 % 0.00 in /  0 mm
19:12 40.4 °F /  4.7 °C 35.0 °F /  1.7 °C 29.62 in /  1002.9 hPa Calm     81 % 0.00 in /  0 mm
19:17 40.2 °F /  4.6 °C 34.8 °F /  1.6 °C 29.62 in /  1002.9 hPa Calm     81 % 0.00 in /  0 mm
19:22 40.2 °F /  4.6 °C 35.1 °F /  1.7 °C 29.62 in /  1002.9 hPa Calm     82 % 0.00 in /  0 mm
19:27 40.0 °F /  4.4 °C 34.9 °F /  1.6 °C 29.62 in /  1002.9 hPa Calm     82 % 0.00 in /  0 mm
19:33 39.8 °F /  4.3 °C 35.1 °F /  1.7 °C 29.62 in /  1002.9 hPa West 0.6 mph /  1 km/h 1.0 mph /  1.6 km/h 83 % 0.00 in /  0 mm
19:38 39.7 °F /  4.3 °C 35.0 °F /  1.7 °C 29.62 in /  1002.9 hPa West 0.6 mph /  1 km/h 2.3 mph /  3.7 km/h 83 % 0.00 in /  0 mm
19:43 39.6 °F /  4.2 °C 35.2 °F /  1.8 °C 29.62 in /  1002.9 hPa West 0.3 mph /  0.5 km/h 1.2 mph /  1.9 km/h 84 % 0.00 in /  0 mm
19:48 39.5 °F /  4.2 °C 35.1 °F /  1.7 °C 29.62 in /  1002.9 hPa Calm   1.2 mph /  1.9 km/h 84 % 0.00 in /  0 mm
19:53 39.5 °F /  4.2 °C 35.1 °F /  1.7 °C 29.62 in /  1002.9 hPa Calm     84 % 0.00 in /  0 mm
19:58 39.3 °F /  4.1 °C 34.9 °F /  1.6 °C 29.62 in /  1002.9 hPa Calm     84 % 0.00 in /  0 mm
20:03 39.3 °F /  4.1 °C 34.9 °F /  1.6 °C 29.62 in /  1002.9 hPa Calm     84 % 0.00 in /  0 mm
20:08 39.3 °F /  4.1 °C 34.9 °F /  1.6 °C 29.62 in /  1002.9 hPa Calm     84 % 0.00 in /  0 mm
20:13 39.2 °F /  4 °C 34.8 °F /  1.6 °C 29.62 in /  1002.9 hPa West 0.2 mph /  0.3 km/h 2.3 mph /  3.7 km/h 84 % 0.00 in /  0 mm
20:18 39.2 °F /  4 °C 35.1 °F /  1.7 °C 29.61 in /  1002.6 hPa West 1.0 mph /  1.6 km/h 2.3 mph /  3.7 km/h 85 % 0.00 in /  0 mm
20:23 39.2 °F /  4 °C 35.1 °F /  1.7 °C 29.61 in /  1002.6 hPa Calm   1.0 mph /  1.6 km/h 85 % 0.00 in /  0 mm
20:28 39.2 °F /  4 °C 35.1 °F /  1.7 °C 29.61 in /  1002.6 hPa West 1.4 mph /  2.3 km/h 2.3 mph /  3.7 km/h 85 % 0.00 in /  0 mm
20:33 39.2 °F /  4 °C 35.1 °F /  1.7 °C 29.61 in /  1002.6 hPa West 0.1 mph /  0.2 km/h 1.2 mph /  1.9 km/h 85 % 0.00 in /  0 mm
20:38 39.3 °F /  4.1 °C 35.2 °F /  1.8 °C 29.61 in /  1002.6 hPa West 0.6 mph /  1 km/h 1.0 mph /  1.6 km/h 85 % 0.00 in /  0 mm
20:43 39.3 °F /  4.1 °C 35.2 °F /  1.8 °C 29.61 in /  1002.6 hPa West 0.3 mph /  0.5 km/h 2.3 mph /  3.7 km/h 85 % 0.00 in /  0 mm
20:48 39.4 °F /  4.1 °C 35.0 °F /  1.7 °C 29.61 in /  1002.6 hPa West 0.1 mph /  0.2 km/h 1.0 mph /  1.6 km/h 84 % 0.00 in /  0 mm
20:54 39.6 °F /  4.2 °C 35.2 °F /  1.8 °C 29.61 in /  1002.6 hPa Calm   1.2 mph /  1.9 km/h 84 % 0.00 in /  0 mm
20:59 39.7 °F /  4.3 °C 35.3 °F /  1.8 °C 29.61 in /  1002.6 hPa Calm     84 % 0.00 in /  0 mm
21:04 39.7 °F /  4.3 °C 35.3 °F /  1.8 °C 29.61 in /  1002.6 hPa Calm     84 % 0.00 in /  0 mm
21:09 39.8 °F /  4.3 °C 35.4 °F /  1.9 °C 29.60 in /  1002.3 hPa Calm   1.0 mph /  1.6 km/h 84 % 0.00 in /  0 mm
21:14 40.0 °F /  4.4 °C 35.6 °F /  2 °C 29.60 in /  1002.3 hPa Calm   1.2 mph /  1.9 km/h 84 % 0.00 in /  0 mm
21:19 40.0 °F /  4.4 °C 35.6 °F /  2 °C 29.60 in /  1002.3 hPa Calm   1.0 mph /  1.6 km/h 84 % 0.00 in /  0 mm
21:24 40.1 °F /  4.5 °C 35.4 °F /  1.9 °C 29.60 in /  1002.3 hPa Calm     83 % 0.00 in /  0 mm
21:29 40.2 °F /  4.6 °C 35.4 °F /  1.9 °C 29.60 in /  1002.3 hPa Calm     83 % 0.00 in /  0 mm
21:34 40.3 °F /  4.6 °C 35.5 °F /  1.9 °C 29.60 in /  1002.3 hPa Calm   1.0 mph /  1.6 km/h 83 % 0.00 in /  0 mm
21:39 40.4 °F /  4.7 °C 35.6 °F /  2 °C 29.60 in /  1002.3 hPa Calm   4.0 mph /  6.4 km/h 83 % 0.00 in /  0 mm
21:44 40.4 °F /  4.7 °C 35.6 °F /  2 °C 29.60 in /  1002.3 hPa Calm   3.0 mph /  4.8 km/h 83 % 0.00 in /  0 mm
21:49 40.5 °F /  4.7 °C 35.7 °F /  2.1 °C 29.60 in /  1002.3 hPa SSW 2.2 mph /  3.5 km/h 3.5 mph /  5.6 km/h 83 % 0.00 in /  0 mm
21:54 40.6 °F /  4.8 °C 35.5 °F /  1.9 °C 29.59 in /  1001.9 hPa South 3.0 mph /  4.8 km/h 6.0 mph /  9.7 km/h 82 % 0.00 in /  0 mm
21:59 40.9 °F /  4.9 °C 35.8 °F /  2.1 °C 29.59 in /  1001.9 hPa South 4.2 mph /  6.8 km/h 7.0 mph /  11.3 km/h 82 % 0.00 in /  0 mm
22:04 41.1 °F /  5.1 °C 36.0 °F /  2.2 °C 29.59 in /  1001.9 hPa South 2.0 mph /  3.2 km/h 4.0 mph /  6.4 km/h 82 % 0.00 in /  0 mm
22:09 41.2 °F /  5.1 °C 36.1 °F /  2.3 °C 29.60 in /  1002.3 hPa South 2.2 mph /  3.5 km/h 4.0 mph /  6.4 km/h 82 % 0.00 in /  0 mm
22:14 41.4 °F /  5.2 °C 36.3 °F /  2.4 °C 29.59 in /  1001.9 hPa SSW 1.6 mph /  2.6 km/h 3.5 mph /  5.6 km/h 82 % 0.00 in /  0 mm
22:19 41.5 °F /  5.3 °C 36.4 °F /  2.4 °C 29.59 in /  1001.9 hPa SW 2.1 mph /  3.4 km/h 3.5 mph /  5.6 km/h 82 % 0.00 in /  0 mm
22:24 41.7 °F /  5.4 °C 36.9 °F /  2.7 °C 29.58 in /  1001.6 hPa SSW 2.5 mph /  4 km/h 4.6 mph /  7.4 km/h 83 % 0.00 in /  0 mm
22:29 41.9 °F /  5.5 °C 37.1 °F /  2.8 °C 29.58 in /  1001.6 hPa SSW 2.4 mph /  3.9 km/h 3.5 mph /  5.6 km/h 83 % 0.00 in /  0 mm
22:34 42.1 °F /  5.6 °C 37.3 °F /  2.9 °C 29.57 in /  1001.2 hPa SSW 1.4 mph /  2.3 km/h 3.5 mph /  5.6 km/h 83 % 0.00 in /  0 mm
22:39 42.3 °F /  5.7 °C 37.5 °F /  3.1 °C 29.57 in /  1001.2 hPa SW 2.9 mph /  4.7 km/h 4.6 mph /  7.4 km/h 83 % 0.00 in /  0 mm
22:44 42.6 °F /  5.9 °C 37.8 °F /  3.2 °C 29.57 in /  1001.2 hPa SSW 1.2 mph /  1.9 km/h 2.3 mph /  3.7 km/h 83 % 0.00 in /  0 mm
22:49 42.8 °F /  6 °C 38.0 °F /  3.3 °C 29.56 in /  1000.9 hPa SW 2.5 mph /  4 km/h 3.5 mph /  5.6 km/h 83 % 0.00 in /  0 mm
22:54 43.0 °F /  6.1 °C 38.2 °F /  3.4 °C 29.56 in /  1000.9 hPa SW 0.4 mph /  0.6 km/h 3.5 mph /  5.6 km/h 83 % 0.00 in /  0 mm
22:59 43.2 °F /  6.2 °C 38.1 °F /  3.4 °C 29.56 in /  1000.9 hPa SW 0.3 mph /  0.5 km/h 3.5 mph /  5.6 km/h 82 % 0.00 in /  0 mm
23:04 43.3 °F /  6.3 °C 38.2 °F /  3.4 °C 29.55 in /  1000.6 hPa SW 0.3 mph /  0.5 km/h 2.3 mph /  3.7 km/h 82 % 0.00 in /  0 mm
23:10 43.5 °F /  6.4 °C 38.4 °F /  3.6 °C 29.55 in /  1000.6 hPa SW 1.0 mph /  1.6 km/h 3.5 mph /  5.6 km/h 82 % 0.00 in /  0 mm
23:15 43.6 °F /  6.4 °C 38.5 °F /  3.6 °C 29.55 in /  1000.6 hPa SW 2.4 mph /  3.9 km/h 4.0 mph /  6.4 km/h 82 % 0.00 in /  0 mm
23:20 43.8 °F /  6.6 °C 38.3 °F /  3.5 °C 29.55 in /  1000.6 hPa SW 3.3 mph /  5.3 km/h 6.0 mph /  9.7 km/h 81 % 0.00 in /  0 mm
23:25 44.1 °F /  6.7 °C 38.6 °F /  3.7 °C 29.55 in /  1000.6 hPa SSW 2.8 mph /  4.5 km/h 3.5 mph /  5.6 km/h 81 % 0.00 in /  0 mm
23:30 44.3 °F /  6.8 °C 38.8 °F /  3.8 °C 29.55 in /  1000.6 hPa SSW 2.4 mph /  3.9 km/h 4.6 mph /  7.4 km/h 81 % 0.00 in /  0 mm
23:35 44.5 °F /  6.9 °C 38.7 °F /  3.7 °C 29.55 in /  1000.6 hPa SW 2.4 mph /  3.9 km/h 4.6 mph /  7.4 km/h 80 % 0.00 in /  0 mm
23:36 44.5 °F /  6.9 °C 38.7 °F /  3.7 °C 29.54 in /  1000.2 hPa SSW 2.1 mph /  3.4 km/h 4.6 mph /  7.4 km/h 80 % 0.00 in /  0 mm
23:41 44.7 °F /  7.1 °C 38.9 °F /  3.8 °C 29.54 in /  1000.2 hPa SW 2.7 mph /  4.3 km/h 5.8 mph /  9.3 km/h 80 % 0.00 in /  0 mm
23:46 44.9 °F /  7.2 °C 38.8 °F /  3.8 °C 29.54 in /  1000.2 hPa SSE 0.9 mph /  1.4 km/h 2.3 mph /  3.7 km/h 79 % 0.00 in /  0 mm
23:51 45.0 °F /  7.2 °C 38.6 °F /  3.7 °C 29.53 in /  999.9 hPa SSW 3.5 mph /  5.6 km/h 8.1 mph /  13 km/h 78 % 0.00 in /  0 mm
23:56 45.2 °F /  7.3 °C 38.7 °F /  3.7 °C 29.53 in /  999.9 hPa SSW 4.5 mph /  7.2 km/h 6.9 mph /  11.1 km/h 78 % 0.00 in /  0 mm
Crab Meadow Weather
Compliments of Weather Underground - 3 mb

Script developed by  Jim McMurry - jmcmurry@mwt.net Adapted for the template by  Wim van der Kuil - Leuven-Template.eu

Astronomy: Earth is 93 million miles away from the Sun.